sensor_id;sensor_type;location;lat;lon;timestamp;pressure;altitude;pressure_sealevel;temperature;humidity
46506;BME280;32220;49.808;9.968;2023-05-09T00:02:25;99226.25;;;17.28;65.13
46506;BME280;32220;49.808;9.968;2023-05-09T00:04:53;99210.94;;;17.19;64.70
46506;BME280;32220;49.808;9.968;2023-05-09T00:07:22;99210.88;;;17.09;64.90
46506;BME280;32220;49.808;9.968;2023-05-09T00:09:49;99202.56;;;16.92;65.05
46506;BME280;32220;49.808;9.968;2023-05-09T00:12:17;99210.69;;;16.90;65.23
46506;BME280;32220;49.808;9.968;2023-05-09T00:14:44;99212.56;;;16.78;64.81
46506;BME280;32220;49.808;9.968;2023-05-09T00:17:15;99210.78;;;16.68;65.07
46506;BME280;32220;49.808;9.968;2023-05-09T00:19:45;99207.25;;;16.56;65.04
46506;BME280;32220;49.808;9.968;2023-05-09T00:22:12;99206.28;;;16.46;65.07
46506;BME280;32220;49.808;9.968;2023-05-09T00:24:40;99210.66;;;16.36;65.03
46506;BME280;32220;49.808;9.968;2023-05-09T00:27:07;99209.72;;;16.26;65.15
46506;BME280;32220;49.808;9.968;2023-05-09T00:29:35;99209.59;;;16.16;65.16
46506;BME280;32220;49.808;9.968;2023-05-09T00:32:03;99209.34;;;16.08;65.39
46506;BME280;32220;49.808;9.968;2023-05-09T00:34:31;99207.28;;;16.00;65.24
46506;BME280;32220;49.808;9.968;2023-05-09T00:37:01;99210.69;;;15.91;65.39
46506;BME280;32220;49.808;9.968;2023-05-09T00:39:28;99209.22;;;15.87;65.75
46506;BME280;32220;49.808;9.968;2023-05-09T00:41:56;99195.53;;;15.80;66.21
46506;BME280;32220;49.808;9.968;2023-05-09T00:44:23;99181.31;;;15.80;68.42
46506;BME280;32220;49.808;9.968;2023-05-09T00:46:51;99174.50;;;15.76;69.73
46506;BME280;32220;49.808;9.968;2023-05-09T00:49:19;99163.22;;;15.72;70.18
46506;BME280;32220;49.808;9.968;2023-05-09T00:51:47;99164.06;;;15.73;69.76
46506;BME280;32220;49.808;9.968;2023-05-09T00:54:16;99160.66;;;15.71;69.67
46506;BME280;32220;49.808;9.968;2023-05-09T00:56:44;99139.19;;;15.61;69.46
46506;BME280;32220;49.808;9.968;2023-05-09T00:59:12;99157.75;;;15.74;69.37
46506;BME280;32220;49.808;9.968;2023-05-09T01:01:40;99155.69;;;15.77;68.87
46506;BME280;32220;49.808;9.968;2023-05-09T01:04:08;99160.19;;;15.77;69.20
46506;BME280;32220;49.808;9.968;2023-05-09T01:06:42;99099.22;;;15.37;68.87
46506;BME280;32220;49.808;9.968;2023-05-09T01:09:18;99163.59;;;15.79;68.47
46506;BME280;32220;49.808;9.968;2023-05-09T01:11:52;99163.81;;;15.76;68.44
46506;BME280;32220;49.808;9.968;2023-05-09T01:14:29;99165.75;;;15.74;67.93
46506;BME280;32220;49.808;9.968;2023-05-09T01:17:04;99160.53;;;15.72;67.82
46506;BME280;32220;49.808;9.968;2023-05-09T01:19:51;99172.19;;;15.71;67.44
46506;BME280;32220;49.808;9.968;2023-05-09T01:22:25;99160.94;;;15.68;67.70
46506;BME280;32220;49.808;9.968;2023-05-09T01:25:15;99160.94;;;15.68;67.28
46506;BME280;32220;49.808;9.968;2023-05-09T01:31:22;99157.75;;;15.63;67.41
46506;BME280;32220;49.808;9.968;2023-05-09T01:33:53;99157.53;;;15.66;67.28
46506;BME280;32220;49.808;9.968;2023-05-09T01:36:25;99159.00;;;15.70;66.98
46506;BME280;32220;49.808;9.968;2023-05-09T01:38:56;99157.03;;;15.72;66.70
46506;BME280;32220;49.808;9.968;2023-05-09T01:41:28;99161.28;;;15.74;66.78
46506;BME280;32220;49.808;9.968;2023-05-09T01:43:58;99159.34;;;15.76;66.71
46506;BME280;32220;49.808;9.968;2023-05-09T01:46:29;99152.91;;;15.79;66.61
46506;BME280;32220;49.808;9.968;2023-05-09T01:48:57;99152.06;;;15.78;66.40
46506;BME280;32220;49.808;9.968;2023-05-09T01:51:26;99153.03;;;15.77;66.33
46506;BME280;32220;49.808;9.968;2023-05-09T01:53:55;99153.16;;;15.76;66.58
46506;BME280;32220;49.808;9.968;2023-05-09T01:56:26;99152.28;;;15.75;66.39
46506;BME280;32220;49.808;9.968;2023-05-09T01:58:54;99151.69;;;15.72;66.88
46506;BME280;32220;49.808;9.968;2023-05-09T02:01:22;99148.53;;;15.67;66.58
46506;BME280;32220;49.808;9.968;2023-05-09T02:03:53;99147.91;;;15.63;66.89
46506;BME280;32220;49.808;9.968;2023-05-09T02:06:22;99116.06;;;15.38;67.01
46506;BME280;32220;49.808;9.968;2023-05-09T02:08:50;99139.25;;;15.49;66.91
46506;BME280;32220;49.808;9.968;2023-05-09T02:11:18;99135.94;;;15.34;67.03
46506;BME280;32220;49.808;9.968;2023-05-09T02:13:46;99143.84;;;15.35;66.77
46506;BME280;32220;49.808;9.968;2023-05-09T02:16:14;99146.25;;;15.27;66.87
46506;BME280;32220;49.808;9.968;2023-05-09T02:18:42;99146.72;;;15.21;66.79
46506;BME280;32220;49.808;9.968;2023-05-09T02:21:11;99143.56;;;15.16;66.93
46506;BME280;32220;49.808;9.968;2023-05-09T02:23:38;99142.09;;;15.12;66.78
46506;BME280;32220;49.808;9.968;2023-05-09T02:26:07;99133.63;;;15.07;67.42
46506;BME280;32220;49.808;9.968;2023-05-09T02:28:35;99139.28;;;15.02;67.25
46506;BME280;32220;49.808;9.968;2023-05-09T02:31:05;99120.09;;;14.86;67.47
46506;BME280;32220;49.808;9.968;2023-05-09T02:33:35;99136.47;;;14.93;67.48
46506;BME280;32220;49.808;9.968;2023-05-09T02:36:05;99137.66;;;14.89;67.60
46506;BME280;32220;49.808;9.968;2023-05-09T02:38:35;99134.38;;;14.85;67.71
46506;BME280;32220;49.808;9.968;2023-05-09T02:41:02;99137.41;;;14.81;67.28
46506;BME280;32220;49.808;9.968;2023-05-09T02:43:30;99127.94;;;14.77;67.41
46506;BME280;32220;49.808;9.968;2023-05-09T02:45:57;99136.16;;;14.73;67.30
46506;BME280;32220;49.808;9.968;2023-05-09T02:48:26;99129.38;;;14.69;67.37
46506;BME280;32220;49.808;9.968;2023-05-09T02:50:53;99129.59;;;14.66;67.45
46506;BME280;32220;49.808;9.968;2023-05-09T02:53:22;99121.34;;;14.58;67.58
46506;BME280;32220;49.808;9.968;2023-05-09T02:55:51;99123.84;;;14.60;67.90
46506;BME280;32220;49.808;9.968;2023-05-09T02:58:19;99124.97;;;14.57;67.72
46506;BME280;32220;49.808;9.968;2023-05-09T03:00:46;99118.88;;;14.55;67.75
46506;BME280;32220;49.808;9.968;2023-05-09T03:03:14;99123.47;;;14.53;68.06
46506;BME280;32220;49.808;9.968;2023-05-09T03:05:43;99126.13;;;14.53;68.27
46506;BME280;32220;49.808;9.968;2023-05-09T03:08:10;99111.31;;;14.49;68.48
46506;BME280;32220;49.808;9.968;2023-05-09T03:10:38;99100.19;;;14.44;68.67
46506;BME280;32220;49.808;9.968;2023-05-09T03:13:07;99111.97;;;14.53;68.82
46506;BME280;32220;49.808;9.968;2023-05-09T03:15:35;99109.41;;;14.51;68.75
46506;BME280;32220;49.808;9.968;2023-05-09T03:18:03;99112.06;;;14.51;68.46
46506;BME280;32220;49.808;9.968;2023-05-09T03:20:31;99108.66;;;14.49;68.49
46506;BME280;32220;49.808;9.968;2023-05-09T03:22:58;99103.69;;;14.45;68.24
46506;BME280;32220;49.808;9.968;2023-05-09T03:25:26;99104.56;;;14.45;68.46
46506;BME280;32220;49.808;9.968;2023-05-09T03:27:53;99106.47;;;14.43;68.24
46506;BME280;32220;49.808;9.968;2023-05-09T03:30:23;99097.75;;;14.41;68.51
46506;BME280;32220;49.808;9.968;2023-05-09T03:32:51;99100.41;;;14.41;68.82
46506;BME280;32220;49.808;9.968;2023-05-09T03:35:19;99102.22;;;14.41;68.77
46506;BME280;32220;49.808;9.968;2023-05-09T03:37:46;99097.75;;;14.41;68.56
46506;BME280;32220;49.808;9.968;2023-05-09T03:40:14;99084.97;;;14.33;68.28
46506;BME280;32220;49.808;9.968;2023-05-09T03:42:49;99071.75;;;14.32;68.43
46506;BME280;32220;49.808;9.968;2023-05-09T03:45:16;99096.41;;;14.47;68.66
46506;BME280;32220;49.808;9.968;2023-05-09T03:47:47;99090.00;;;14.49;68.71
46506;BME280;32220;49.808;9.968;2023-05-09T03:50:15;99089.78;;;14.52;68.48
46506;BME280;32220;49.808;9.968;2023-05-09T03:52:43;99094.91;;;14.55;68.39
46506;BME280;32220;49.808;9.968;2023-05-09T03:55:13;99092.97;;;14.57;68.23
46506;BME280;32220;49.808;9.968;2023-05-09T03:57:40;99094.69;;;14.58;68.43
46506;BME280;32220;49.808;9.968;2023-05-09T04:00:08;99085.81;;;14.58;68.32
46506;BME280;32220;49.808;9.968;2023-05-09T04:02:50;99085.69;;;14.59;68.74
46506;BME280;32220;49.808;9.968;2023-05-09T04:05:27;99091.66;;;14.63;68.21
46506;BME280;32220;49.808;9.968;2023-05-09T04:07:55;99083.41;;;14.66;68.67
46506;BME280;32220;49.808;9.968;2023-05-09T04:10:23;99081.28;;;14.71;68.77
46506;BME280;32220;49.808;9.968;2023-05-09T04:12:51;99086.25;;;14.76;69.00
46506;BME280;32220;49.808;9.968;2023-05-09T04:15:18;99077.06;;;14.80;69.53
46506;BME280;32220;49.808;9.968;2023-05-09T04:17:46;99081.91;;;14.86;69.61
46506;BME280;32220;49.808;9.968;2023-05-09T04:20:15;99076.09;;;14.92;69.55
46506;BME280;32220;49.808;9.968;2023-05-09T04:22:43;99076.47;;;14.98;69.54
46506;BME280;32220;49.808;9.968;2023-05-09T04:25:11;99064.94;;;14.98;69.42
46506;BME280;32220;49.808;9.968;2023-05-09T04:27:40;99079.78;;;15.13;68.98
46506;BME280;32220;49.808;9.968;2023-05-09T04:30:09;99052.59;;;14.97;68.99
46506;BME280;32220;49.808;9.968;2023-05-09T04:32:36;99079.31;;;15.19;69.16
46506;BME280;32220;49.808;9.968;2023-05-09T04:35:05;99093.13;;;15.24;68.73
46506;BME280;32220;49.808;9.968;2023-05-09T04:37:39;99094.59;;;15.28;69.36
46506;BME280;32220;49.808;9.968;2023-05-09T04:40:09;99090.00;;;15.30;68.94
46506;BME280;32220;49.808;9.968;2023-05-09T04:42:42;99084.91;;;15.38;68.67
46506;BME280;32220;49.808;9.968;2023-05-09T04:45:10;99086.09;;;15.45;68.81
46506;BME280;32220;49.808;9.968;2023-05-09T04:47:38;99083.50;;;15.57;68.20
46506;BME280;32220;49.808;9.968;2023-05-09T04:50:06;99086.28;;;15.66;67.94
46506;BME280;32220;49.808;9.968;2023-05-09T04:52:34;99088.81;;;15.79;68.13
46506;BME280;32220;49.808;9.968;2023-05-09T04:55:04;99084.66;;;15.86;67.87
46506;BME280;32220;49.808;9.968;2023-05-09T04:57:37;99088.06;;;15.99;67.67
46506;BME280;32220;49.808;9.968;2023-05-09T05:00:06;99089.13;;;16.08;67.63
46506;BME280;32220;49.808;9.968;2023-05-09T05:02:36;99089.25;;;16.17;67.65
46506;BME280;32220;49.808;9.968;2023-05-09T05:05:05;99086.41;;;16.30;67.58
46506;BME280;32220;49.808;9.968;2023-05-09T05:07:36;99087.72;;;16.36;67.02
46506;BME280;32220;49.808;9.968;2023-05-09T05:10:07;99073.38;;;16.37;66.99
46506;BME280;32220;49.808;9.968;2023-05-09T05:12:36;99083.78;;;16.51;66.94
46506;BME280;32220;49.808;9.968;2023-05-09T05:15:07;99075.50;;;16.54;66.67
46506;BME280;32220;49.808;9.968;2023-05-09T05:17:35;99083.84;;;16.72;66.35
46506;BME280;32220;49.808;9.968;2023-05-09T05:20:06;99079.69;;;16.79;66.46
46506;BME280;32220;49.808;9.968;2023-05-09T05:22:36;99081.19;;;16.93;66.19
46506;BME280;32220;49.808;9.968;2023-05-09T05:25:07;99093.53;;;17.05;65.96
46506;BME280;32220;49.808;9.968;2023-05-09T05:27:40;99094.19;;;17.18;65.74
46506;BME280;32220;49.808;9.968;2023-05-09T05:30:11;99091.00;;;17.34;65.79
46506;BME280;32220;49.808;9.968;2023-05-09T05:32:41;99091.38;;;17.50;65.89
46506;BME280;32220;49.808;9.968;2023-05-09T05:35:10;99092.63;;;17.67;65.48
46506;BME280;32220;49.808;9.968;2023-05-09T05:37:38;99088.56;;;17.82;65.16
46506;BME280;32220;49.808;9.968;2023-05-09T05:40:08;99094.84;;;17.92;63.57
46506;BME280;32220;49.808;9.968;2023-05-09T05:42:39;99098.91;;;17.96;61.72
46506;BME280;32220;49.808;9.968;2023-05-09T05:45:07;99081.13;;;17.95;61.09
46506;BME280;32220;49.808;9.968;2023-05-09T05:47:38;99104.59;;;18.12;60.42
46506;BME280;32220;49.808;9.968;2023-05-09T05:50:07;99101.53;;;18.26;59.57
46506;BME280;32220;49.808;9.968;2023-05-09T05:52:37;99102.41;;;18.46;58.27
46506;BME280;32220;49.808;9.968;2023-05-09T05:55:05;99104.44;;;18.63;57.75
46506;BME280;32220;49.808;9.968;2023-05-09T05:57:35;99109.78;;;18.73;57.00
46506;BME280;32220;49.808;9.968;2023-05-09T06:00:05;99095.66;;;18.71;57.67
46506;BME280;32220;49.808;9.968;2023-05-09T06:02:41;99088.06;;;18.76;57.38
46506;BME280;32220;49.808;9.968;2023-05-09T06:05:09;99088.31;;;18.83;56.78
46506;BME280;32220;49.808;9.968;2023-05-09T06:07:38;99094.53;;;18.83;56.08
46506;BME280;32220;49.808;9.968;2023-05-09T06:10:07;99101.03;;;18.71;55.56
46506;BME280;32220;49.808;9.968;2023-05-09T06:12:36;99101.03;;;18.71;54.85
46506;BME280;32220;49.808;9.968;2023-05-09T06:15:06;99115.44;;;18.70;54.53
46506;BME280;32220;49.808;9.968;2023-05-09T06:17:45;99114.84;;;18.57;53.76
46506;BME280;32220;49.808;9.968;2023-05-09T06:20:13;99116.78;;;18.45;53.52
46506;BME280;32220;49.808;9.968;2023-05-09T06:22:41;99124.44;;;18.40;53.49
46506;BME280;32220;49.808;9.968;2023-05-09T06:25:08;99094.75;;;18.22;53.50
46506;BME280;32220;49.808;9.968;2023-05-09T06:27:37;99121.03;;;18.38;52.67
46506;BME280;32220;49.808;9.968;2023-05-09T06:30:06;99121.94;;;18.58;52.64
46506;BME280;32220;49.808;9.968;2023-05-09T06:32:34;99120.66;;;19.00;51.84
46506;BME280;32220;49.808;9.968;2023-05-09T06:35:02;99130.06;;;19.33;49.68
46506;BME280;32220;49.808;9.968;2023-05-09T06:37:32;99128.59;;;19.68;49.37
46506;BME280;32220;49.808;9.968;2023-05-09T06:39:59;99119.66;;;20.04;49.71
46506;BME280;32220;49.808;9.968;2023-05-09T06:42:27;99140.16;;;20.42;47.51
46506;BME280;32220;49.808;9.968;2023-05-09T06:44:56;99124.03;;;21.13;47.69
46506;BME280;32220;49.808;9.968;2023-05-09T06:47:24;99150.25;;;21.73;44.66
46506;BME280;32220;49.808;9.968;2023-05-09T06:49:51;99155.34;;;22.10;42.84
46506;BME280;32220;49.808;9.968;2023-05-09T06:52:19;99155.16;;;22.45;42.18
46506;BME280;32220;49.808;9.968;2023-05-09T06:54:47;99159.88;;;22.51;40.93
46506;BME280;32220;49.808;9.968;2023-05-09T06:57:15;99145.00;;;22.39;41.69
46506;BME280;32220;49.808;9.968;2023-05-09T06:59:43;99153.25;;;22.38;40.97
46506;BME280;32220;49.808;9.968;2023-05-09T07:02:12;99137.25;;;22.36;41.64
46506;BME280;32220;49.808;9.968;2023-05-09T07:04:41;99145.00;;;22.39;41.47
46506;BME280;32220;49.808;9.968;2023-05-09T07:07:08;99122.56;;;22.39;42.24
46506;BME280;32220;49.808;9.968;2023-05-09T07:09:36;99138.28;;;22.51;41.77
46506;BME280;32220;49.808;9.968;2023-05-09T07:12:04;99129.38;;;22.59;41.64
46506;BME280;32220;49.808;9.968;2023-05-09T07:14:32;99142.19;;;22.57;40.13
46506;BME280;32220;49.808;9.968;2023-05-09T07:16:59;99131.56;;;22.64;40.80
46506;BME280;32220;49.808;9.968;2023-05-09T07:19:28;99126.06;;;22.89;41.33
46506;BME280;32220;49.808;9.968;2023-05-09T07:21:56;99121.19;;;23.34;41.88
46506;BME280;32220;49.808;9.968;2023-05-09T07:24:23;99117.84;;;23.87;41.42
46506;BME280;32220;49.808;9.968;2023-05-09T07:26:51;99110.94;;;24.62;40.34
46506;BME280;32220;49.808;9.968;2023-05-09T07:29:19;99129.03;;;25.16;38.07
46506;BME280;32220;49.808;9.968;2023-05-09T07:31:47;99128.44;;;25.05;36.78
46506;BME280;32220;49.808;9.968;2023-05-09T07:34:15;99127.84;;;25.18;36.75
46506;BME280;32220;49.808;9.968;2023-05-09T07:36:46;99128.16;;;25.38;35.67
46506;BME280;32220;49.808;9.968;2023-05-09T07:39:14;99128.28;;;25.45;36.26
46506;BME280;32220;49.808;9.968;2023-05-09T07:41:42;99132.84;;;25.44;34.98
46506;BME280;32220;49.808;9.968;2023-05-09T07:44:09;99114.19;;;25.26;35.23
46506;BME280;32220;49.808;9.968;2023-05-09T07:46:37;99126.28;;;25.38;35.06
46506;BME280;32220;49.808;9.968;2023-05-09T07:49:07;99124.53;;;25.46;34.78
46506;BME280;32220;49.808;9.968;2023-05-09T07:51:35;99106.78;;;25.58;35.85
46506;BME280;32220;49.808;9.968;2023-05-09T07:54:04;99119.66;;;25.79;34.51
46506;BME280;32220;49.808;9.968;2023-05-09T07:56:31;99128.06;;;25.84;34.06
46506;BME280;32220;49.808;9.968;2023-05-09T07:58:59;99098.31;;;25.90;35.71
46506;BME280;32220;49.808;9.968;2023-05-09T08:01:27;99115.50;;;25.97;34.13
46506;BME280;32220;49.808;9.968;2023-05-09T08:03:54;99098.34;;;26.26;34.16
46506;BME280;32220;49.808;9.968;2023-05-09T08:06:22;99111.03;;;26.91;33.50
46506;BME280;32220;49.808;9.968;2023-05-09T08:08:49;99125.09;;;27.65;32.06
46506;BME280;32220;49.808;9.968;2023-05-09T08:11:19;99128.47;;;28.36;30.23
46506;BME280;32220;49.808;9.968;2023-05-09T08:13:46;99135.47;;;28.58;30.02
46506;BME280;32220;49.808;9.968;2023-05-09T08:16:14;99114.41;;;28.80;30.14
46506;BME280;32220;49.808;9.968;2023-05-09T08:18:42;99128.66;;;28.95;29.06
46506;BME280;32220;49.808;9.968;2023-05-09T08:21:10;99110.47;;;29.16;29.75
46506;BME280;32220;49.808;9.968;2023-05-09T08:23:38;99119.03;;;29.19;29.19
46506;BME280;32220;49.808;9.968;2023-05-09T08:26:06;99090.22;;;28.71;28.66
46506;BME280;32220;49.808;9.968;2023-05-09T08:28:36;99094.13;;;28.42;29.90
46506;BME280;32220;49.808;9.968;2023-05-09T08:31:03;99102.25;;;28.29;30.29
46506;BME280;32220;49.808;9.968;2023-05-09T08:33:31;99079.38;;;28.23;30.02
46506;BME280;32220;49.808;9.968;2023-05-09T08:35:59;99100.44;;;28.08;29.07
46506;BME280;32220;49.808;9.968;2023-05-09T08:38:26;99090.16;;;28.03;29.55
46506;BME280;32220;49.808;9.968;2023-05-09T08:40:59;99079.75;;;28.68;29.93
46506;BME280;32220;49.808;9.968;2023-05-09T08:43:27;99082.97;;;29.63;28.62
46506;BME280;32220;49.808;9.968;2023-05-09T08:45:58;99091.22;;;30.21;27.62
46506;BME280;32220;49.808;9.968;2023-05-09T08:48:27;99084.91;;;30.21;28.60
46506;BME280;32220;49.808;9.968;2023-05-09T08:50:55;99079.13;;;29.84;28.23
46506;BME280;32220;49.808;9.968;2023-05-09T08:53:23;99078.34;;;29.57;28.94
46506;BME280;32220;49.808;9.968;2023-05-09T08:55:51;99078.53;;;29.36;28.27
46506;BME280;32220;49.808;9.968;2023-05-09T08:58:19;99076.22;;;29.20;28.72
46506;BME280;32220;49.808;9.968;2023-05-09T09:00:48;99077.91;;;29.08;28.78
46506;BME280;32220;49.808;9.968;2023-05-09T09:03:18;99067.22;;;29.13;28.86
46506;BME280;32220;49.808;9.968;2023-05-09T09:05:46;99072.66;;;29.19;28.34
46506;BME280;32220;49.808;9.968;2023-05-09T09:08:16;99060.72;;;29.14;28.67
46506;BME280;32220;49.808;9.968;2023-05-09T09:10:45;99046.66;;;29.30;28.47
46506;BME280;32220;49.808;9.968;2023-05-09T09:13:14;99032.56;;;29.59;29.15
46506;BME280;32220;49.808;9.968;2023-05-09T09:15:45;99043.22;;;30.39;27.68
46506;BME280;32220;49.808;9.968;2023-05-09T09:18:19;99027.53;;;30.65;27.31
46506;BME280;32220;49.808;9.968;2023-05-09T09:20:53;99030.72;;;30.87;27.03
46506;BME280;32220;49.808;9.968;2023-05-09T09:23:24;99043.81;;;31.35;24.74
46506;BME280;32220;49.808;9.968;2023-05-09T09:25:56;99027.19;;;31.55;24.69
46506;BME280;32220;49.808;9.968;2023-05-09T09:28:25;99040.09;;;31.72;24.93
46506;BME280;32220;49.808;9.968;2023-05-09T09:30:54;99041.63;;;32.23;24.09
46506;BME280;32220;49.808;9.968;2023-05-09T09:33:24;99061.47;;;32.97;20.53
46506;BME280;32220;49.808;9.968;2023-05-09T09:35:54;99072.25;;;33.22;19.32
46506;BME280;32220;49.808;9.968;2023-05-09T09:38:23;99044.19;;;33.19;20.24
46506;BME280;32220;49.808;9.968;2023-05-09T09:40:52;99041.72;;;33.53;21.06
46506;BME280;32220;49.808;9.968;2023-05-09T09:43:26;99035.63;;;33.86;21.57
46506;BME280;32220;49.808;9.968;2023-05-09T09:45:55;99018.19;;;34.61;20.75
46506;BME280;32220;49.808;9.968;2023-05-09T09:48:25;99017.81;;;35.19;19.83
46506;BME280;32220;49.808;9.968;2023-05-09T09:50:54;99031.63;;;35.74;18.54
46506;BME280;32220;49.808;9.968;2023-05-09T09:53:22;99028.91;;;36.18;18.60
46506;BME280;32220;49.808;9.968;2023-05-09T09:55:55;99024.09;;;35.48;18.66
46506;BME280;32220;49.808;9.968;2023-05-09T09:58:23;99017.59;;;34.58;19.58
46506;BME280;32220;49.808;9.968;2023-05-09T10:01:03;98994.41;;;33.74;20.17
46506;BME280;32220;49.808;9.968;2023-05-09T10:03:37;99000.28;;;33.54;20.28
46506;BME280;32220;49.808;9.968;2023-05-09T10:06:09;98971.47;;;33.80;22.43
46506;BME280;32220;49.808;9.968;2023-05-09T10:08:37;98969.72;;;34.03;21.58
46506;BME280;32220;49.808;9.968;2023-05-09T10:11:05;98975.41;;;34.13;21.33
46506;BME280;32220;49.808;9.968;2023-05-09T10:13:34;98963.53;;;34.52;20.77
46506;BME280;32220;49.808;9.968;2023-05-09T10:16:04;98967.59;;;34.78;21.04
46506;BME280;32220;49.808;9.968;2023-05-09T10:18:33;98971.09;;;34.90;20.37
46506;BME280;32220;49.808;9.968;2023-05-09T10:21:02;98952.28;;;35.38;20.79
46506;BME280;32220;49.808;9.968;2023-05-09T10:23:33;98977.06;;;35.54;19.12
46506;BME280;32220;49.808;9.968;2023-05-09T10:26:08;98974.19;;;35.66;19.45
46506;BME280;32220;49.808;9.968;2023-05-09T10:28:40;98942.81;;;35.50;19.36
46506;BME280;32220;49.808;9.968;2023-05-09T10:31:11;98917.53;;;35.75;20.25
46506;BME280;32220;49.808;9.968;2023-05-09T10:33:46;98957.72;;;35.71;19.11
46506;BME280;32220;49.808;9.968;2023-05-09T10:36:18;98943.06;;;35.87;19.38
46506;BME280;32220;49.808;9.968;2023-05-09T10:38:47;98943.63;;;35.89;19.29
46506;BME280;32220;49.808;9.968;2023-05-09T10:41:15;98932.66;;;35.94;18.79
46506;BME280;32220;49.808;9.968;2023-05-09T10:43:44;98940.50;;;35.81;19.13
46506;BME280;32220;49.808;9.968;2023-05-09T10:46:12;98933.88;;;35.21;19.11
46506;BME280;32220;49.808;9.968;2023-05-09T10:48:40;98915.38;;;35.00;20.44
46506;BME280;32220;49.808;9.968;2023-05-09T10:51:10;98902.34;;;35.12;20.49
46506;BME280;32220;49.808;9.968;2023-05-09T10:53:44;98872.13;;;35.17;20.25
46506;BME280;32220;49.808;9.968;2023-05-09T10:56:24;98892.50;;;35.16;19.76
46506;BME280;32220;49.808;9.968;2023-05-09T10:58:52;98894.16;;;35.17;20.81
46506;BME280;32220;49.808;9.968;2023-05-09T11:01:31;98875.75;;;35.01;21.05
46506;BME280;32220;49.808;9.968;2023-05-09T11:04:00;98854.88;;;34.83;22.10
46506;BME280;32220;49.808;9.968;2023-05-09T11:06:43;98882.72;;;34.37;19.66
46506;BME280;32220;49.808;9.968;2023-05-09T11:09:25;98871.84;;;34.30;20.38
46506;BME280;32220;49.808;9.968;2023-05-09T11:11:55;98846.38;;;34.85;22.38
46506;BME280;32220;49.808;9.968;2023-05-09T11:14:28;98862.09;;;35.28;19.76
46506;BME280;32220;49.808;9.968;2023-05-09T11:16:57;98852.88;;;35.39;19.99
46506;BME280;32220;49.808;9.968;2023-05-09T11:19:37;98850.91;;;35.35;19.27
46506;BME280;32220;49.808;9.968;2023-05-09T11:22:12;98846.25;;;35.18;20.24
46506;BME280;32220;49.808;9.968;2023-05-09T11:24:50;98830.63;;;35.02;19.26
46506;BME280;32220;49.808;9.968;2023-05-09T11:27:20;98847.34;;;34.96;19.57
46506;BME280;32220;49.808;9.968;2023-05-09T11:29:50;98834.53;;;34.84;20.11
46506;BME280;32220;49.808;9.968;2023-05-09T11:32:19;98822.44;;;34.85;20.63
46506;BME280;32220;49.808;9.968;2023-05-09T11:34:48;98809.63;;;34.96;21.25
46506;BME280;32220;49.808;9.968;2023-05-09T11:37:16;98813.28;;;35.02;20.75
46506;BME280;32220;49.808;9.968;2023-05-09T11:39:56;98822.06;;;35.20;19.42
46506;BME280;32220;49.808;9.968;2023-05-09T11:42:26;98821.19;;;35.37;19.40
46506;BME280;32220;49.808;9.968;2023-05-09T11:44:55;98785.66;;;35.62;20.48
46506;BME280;32220;49.808;9.968;2023-05-09T11:47:23;98772.16;;;35.87;20.57
46506;BME280;32220;49.808;9.968;2023-05-09T11:49:53;98789.59;;;36.25;19.38
46506;BME280;32220;49.808;9.968;2023-05-09T11:52:21;98751.16;;;36.45;20.34
46506;BME280;32220;49.808;9.968;2023-05-09T11:54:49;98768.50;;;36.88;18.13
46506;BME280;32220;49.808;9.968;2023-05-09T11:57:18;98774.38;;;37.74;18.46
46506;BME280;32220;49.808;9.968;2023-05-09T11:59:47;98806.50;;;38.61;17.09
46506;BME280;32220;49.808;9.968;2023-05-09T12:02:15;98787.63;;;38.94;17.45
46506;BME280;32220;49.808;9.968;2023-05-09T12:04:43;98757.16;;;38.99;17.28
46506;BME280;32220;49.808;9.968;2023-05-09T12:07:11;98787.03;;;39.12;15.99
46506;BME280;32220;49.808;9.968;2023-05-09T12:09:39;98776.28;;;38.90;16.41
46506;BME280;32220;49.808;9.968;2023-05-09T12:12:09;98755.50;;;38.88;17.13
46506;BME280;32220;49.808;9.968;2023-05-09T12:14:41;98770.34;;;39.27;16.95
46506;BME280;32220;49.808;9.968;2023-05-09T12:17:09;98775.59;;;39.24;15.82
46506;BME280;32220;49.808;9.968;2023-05-09T12:19:37;98738.00;;;39.07;17.38
46506;BME280;32220;49.808;9.968;2023-05-09T12:22:05;98765.47;;;39.04;16.47
46506;BME280;32220;49.808;9.968;2023-05-09T12:24:34;98763.47;;;39.09;16.27
46506;BME280;32220;49.808;9.968;2023-05-09T12:27:03;98749.81;;;39.28;16.89
46506;BME280;32220;49.808;9.968;2023-05-09T12:29:33;98746.34;;;39.57;16.04
46506;BME280;32220;49.808;9.968;2023-05-09T12:32:03;98726.25;;;39.75;16.98
46506;BME280;32220;49.808;9.968;2023-05-09T12:34:31;98742.88;;;39.80;15.92
46506;BME280;32220;49.808;9.968;2023-05-09T12:36:58;98730.00;;;39.94;15.47
46506;BME280;32220;49.808;9.968;2023-05-09T12:39:28;98717.66;;;40.10;16.33
46506;BME280;32220;49.808;9.968;2023-05-09T12:41:56;98722.13;;;40.40;16.07
46506;BME280;32220;49.808;9.968;2023-05-09T12:44:24;98724.06;;;40.93;16.00
46506;BME280;32220;49.808;9.968;2023-05-09T12:46:58;98720.75;;;41.14;15.46
46506;BME280;32220;49.808;9.968;2023-05-09T12:49:29;98724.88;;;41.36;14.68
46506;BME280;32220;49.808;9.968;2023-05-09T12:51:58;98712.31;;;41.19;14.81
46506;BME280;32220;49.808;9.968;2023-05-09T12:54:27;98707.41;;;40.93;14.71
46506;BME280;32220;49.808;9.968;2023-05-09T12:56:57;98702.19;;;40.86;15.48
46506;BME280;32220;49.808;9.968;2023-05-09T12:59:25;98684.38;;;40.63;14.72
46506;BME280;32220;49.808;9.968;2023-05-09T13:01:55;98687.50;;;40.56;15.64
46506;BME280;32220;49.808;9.968;2023-05-09T13:04:25;98688.22;;;40.43;16.07
46506;BME280;32220;49.808;9.968;2023-05-09T13:06:55;98662.75;;;40.36;16.30
46506;BME280;32220;49.808;9.968;2023-05-09T13:09:25;98677.72;;;40.64;15.42
46506;BME280;32220;49.808;9.968;2023-05-09T13:11:53;98667.91;;;40.72;15.99
46506;BME280;32220;49.808;9.968;2023-05-09T13:14:22;98672.28;;;40.54;15.12
46506;BME280;32220;49.808;9.968;2023-05-09T13:16:50;98652.19;;;40.38;15.58